| time (UTC) | temp C | wind direction | speed KPH | gust KPH | rain 1hr cm | rain 24hr cm | rain mn cm | humidity % | barometer mb |
| 20260506193050 | 14 | 240 | 4.8 | 8.0 | 0.05 | 0.38 | 0.38 | 90 | 1009.9 |
| 20260506192551 | 14 | 174 | 3.2 | 4.8 | 0.05 | 0.38 | 0.38 | 90 | 1009.6 |
| 20260506192051 | 14 | 0 | 0.0 | 9.7 | 0.08 | 0.38 | 0.38 | 90 | 1009.7 |
| 20260506191551 | 14 | 212 | 0.0 | 9.7 | 0.08 | 0.38 | 0.38 | 90 | 1010.0 |
| 20260506191050 | 14 | 217 | 3.2 | 9.7 | 0.08 | 0.38 | 0.38 | 90 | 1010.1 |
| 20260506190551 | 14 | 0 | 0.0 | 11.3 | 0.10 | 0.38 | 0.38 | 90 | 1009.8 |
| 20260506190051 | 14 | 221 | 3.2 | 11.3 | 0.10 | 0.38 | 0.38 | 90 | 1009.8 |
| 20260506185551 | 14 | 134 | 8.0 | 11.3 | 0.10 | 0.36 | 0.36 | 90 | 1010.0 |
| 20260506185112 | 14 | 214 | 4.8 | 6.4 | 0.10 | 0.36 | 0.36 | 90 | 1010.2 |
| 20260506184612 | 14 | 0 | 0.0 | 6.4 | 0.13 | 0.36 | 0.36 | 90 | 1010.3 |
| 20260506184050 | 14 | 258 | 1.6 | 8.0 | 0.15 | 0.36 | 0.36 | 90 | 1010.2 |
| 20260506183550 | 14 | 231 | 1.6 | 8.0 | 0.18 | 0.33 | 0.33 | 90 | 1010.2 |
| 20260506183051 | 14 | 117 | 1.6 | 14.5 | 0.23 | 0.33 | 0.33 | 89 | 1010.1 |
| 20260506182551 | 14 | 304 | 1.6 | 14.5 | 0.28 | 0.33 | 0.33 | 89 | 1010.0 |
| 20260506182050 | 14 | 226 | 6.4 | 12.9 | 0.28 | 0.30 | 0.30 | 89 | 1009.8 |
| 20260506181551 | 14 | 323 | 3.2 | 12.9 | 0.28 | 0.30 | 0.30 | 89 | 1009.9 |
| 20260506181050 | 14 | 257 | 1.6 | 11.3 | 0.30 | 0.30 | 0.30 | 89 | 1009.9 |
| 20260506180551 | 15 | 282 | 4.8 | 9.7 | 0.28 | 0.28 | 0.28 | 89 | 1010.0 |
| 20260506180051 | 15 | 254 | 0.0 | 9.7 | 0.28 | 0.28 | 0.28 | 88 | 1010.3 |
| 20260506175551 | 15 | 0 | 0.0 | 9.7 | 0.25 | 0.25 | 0.25 | 88 | 1010.4 |
| 20260506175051 | 15 | 328 | 3.2 | 4.8 | 0.25 | 0.25 | 0.25 | 88 | 1010.6 |
| 20260506174551 | 15 | 214 | 3.2 | 4.8 | 0.23 | 0.23 | 0.23 | 88 | 1010.7 |
| 20260506174112 | 15 | 219 | 0.0 | 3.2 | 0.20 | 0.20 | 0.20 | 87 | 1010.8 |
| 20260506173551 | 15 | 0 | 0.0 | 4.8 | 0.15 | 0.15 | 0.15 | 86 | 1011.0 |
| 20260506173112 | 16 | 195 | 0.0 | 4.8 | 0.10 | 0.10 | 0.10 | 85 | 1011.2 |
| 20260506172551 | 16 | 195 | 1.6 | 3.2 | 0.05 | 0.05 | 0.05 | 84 | 1011.2 |
| 20260506172051 | 16 | 226 | 1.6 | 4.8 | 0.03 | 0.03 | 0.03 | 82 | 1011.2 |
| 20260506171551 | 16 | 233 | 1.6 | 4.8 | 0.03 | 0.03 | 0.03 | 81 | 1011.4 |
| 20260506171051 | 17 | 191 | 3.2 | 6.4 | 0.00 | 0.00 | 0.00 | 80 | 1011.5 |
| 20260506170551 | 17 | 0 | 0.0 | 6.4 | 0.00 | 0.00 | 0.00 | 78 | 1011.6 |
| 20260506170051 | 17 | 0 | 0.0 | 8.0 | 0.00 | 0.00 | 0.00 | 76 | 1011.7 |
| 20260506165551 | 18 | 233 | 3.2 | 9.7 | 0.00 | 0.00 | 0.00 | 75 | 1011.5 |
| 20260506165051 | 18 | 196 | 4.8 | 9.7 | 0.00 | 0.00 | 0.00 | 73 | 1011.4 |
| 20260506164551 | 18 | 177 | 4.8 | 12.9 | 0.00 | 0.00 | 0.00 | 70 | 1011.2 |
| 20260506164051 | 18 | 137 | 1.6 | 12.9 | 0.00 | 0.00 | 0.00 | 70 | 1011.3 |
| 20260506163550 | 19 | 174 | 1.6 | 11.3 | 0.00 | 0.00 | 0.00 | 71 | 1011.2 |
| 20260506163051 | 19 | 262 | 4.8 | 16.1 | 0.00 | 0.00 | 0.00 | 70 | 1011.2 |
| 20260506162551 | 19 | 225 | 3.2 | 16.1 | 0.00 | 0.00 | 0.00 | 70 | 1011.2 |
| 20260506162051 | 18 | 153 | 3.2 | 12.9 | 0.00 | 0.00 | 0.00 | 69 | 1011.1 |
| 20260506161551 | 19 | 179 | 3.2 | 11.3 | 0.00 | 0.00 | 0.00 | 70 | 1011.4 |
| 20260506161051 | 18 | 164 | 1.6 | 14.5 | 0.00 | 0.00 | 0.00 | 70 | 1011.5 |
| 20260506160551 | 18 | 208 | 0.0 | 16.1 | 0.00 | 0.00 | 0.00 | 69 | 1011.5 |
| 20260506160051 | 18 | 162 | 1.6 | 16.1 | 0.00 | 0.00 | 0.00 | 70 | 1011.7 |
| 20260506155551 | 18 | 0 | 0.0 | 14.5 | 0.00 | 0.00 | 0.00 | 69 | 1011.7 |
| 20260506155112 | 19 | 143 | 8.0 | 14.5 | 0.00 | 0.00 | 0.00 | 68 | 1011.7 |
| 20260506154551 | 19 | 57 | 6.4 | 14.5 | 0.00 | 0.00 | 0.00 | 68 | 1011.6 |
| 20260506154051 | 19 | 181 | 3.2 | 9.7 | 0.00 | 0.00 | 0.00 | 68 | 1011.6 |
| 20260506153551 | 19 | 143 | 1.6 | 11.3 | 0.00 | 0.00 | 0.00 | 68 | 1011.5 |
| 20260506153051 | 19 | 200 | 0.0 | 11.3 | 0.00 | 0.00 | 0.00 | 68 | 1011.5 |
| 20260506152551 | 19 | 324 | 8.0 | 11.3 | 0.00 | 0.00 | 0.00 | 68 | 1011.6 |
| 20260506152111 | 19 | 249 | 3.2 | 11.3 | 0.00 | 0.00 | 0.00 | 67 | 1011.5 |
| 20260506151551 | 19 | 104 | 1.6 | 11.3 | 0.00 | 0.00 | 0.00 | 67 | 1011.5 |
| 20260506151051 | 19 | 0 | 0.0 | 11.3 | 0.00 | 0.00 | 0.00 | 68 | 1011.5 |
| 20260506150612 | 19 | 205 | 4.8 | 12.9 | 0.00 | 0.00 | 0.00 | 67 | 1011.6 |
| 20260506150051 | 19 | 238 | 3.2 | 12.9 | 0.00 | 0.00 | 0.00 | 68 | 1011.6 |
| 20260506145551 | 19 | 176 | 0.0 | 14.5 | 0.00 | 0.00 | 0.00 | 70 | 1011.6 |
| 20260506145050 | 19 | 174 | 0.0 | 16.1 | 0.00 | 0.00 | 0.00 | 68 | 1011.8 |
| 20260506144551 | 19 | 129 | 4.8 | 17.7 | 0.00 | 0.00 | 0.00 | 69 | 1011.8 |
| 20260506144051 | 19 | 160 | 3.2 | 17.7 | 0.00 | 0.00 | 0.00 | 68 | 1011.9 |
| 20260506143551 | 19 | 108 | 0.0 | 20.9 | 0.00 | 0.00 | 0.00 | 70 | 1011.9 |
| 20260506143051 | 19 | 192 | 3.2 | 20.9 | 0.00 | 0.00 | 0.00 | 69 | 1011.8 |
| 20260506142612 | 18 | 161 | 3.2 | 20.9 | 0.00 | 0.00 | 0.00 | 69 | 1011.9 |
| 20260506142112 | 18 | 274 | 1.6 | 12.9 | 0.00 | 0.00 | 0.00 | 70 | 1011.9 |
| 20260506141612 | 18 | 134 | 6.4 | 12.9 | 0.00 | 0.00 | 0.00 | 70 | 1011.9 |
| 20260506141051 | 18 | 230 | 1.6 | 14.5 | 0.00 | 0.00 | 0.00 | 71 | 1012.0 |
| 20260506140551 | 18 | 122 | 1.6 | 16.1 | 0.00 | 0.00 | 0.00 | 71 | 1012.1 |
| 20260506140112 | 18 | 50 | 1.6 | 16.1 | 0.00 | 0.00 | 0.00 | 72 | 1012.0 |
| 20260506135551 | 18 | 202 | 1.6 | 16.1 | 0.00 | 0.00 | 0.00 | 73 | 1011.9 |
| 20260506135051 | 18 | 66 | 9.7 | 16.1 | 0.00 | 0.00 | 0.00 | 72 | 1011.8 |
| 20260506134612 | 18 | 185 | 3.2 | 16.1 | 0.00 | 0.00 | 0.00 | 73 | 1011.6 |
| 20260506134050 | 18 | 224 | 4.8 | 16.1 | 0.00 | 0.00 | 0.00 | 73 | 1011.6 |
| 20260506133551 | 18 | 249 | 6.4 | 9.7 | 0.00 | 0.00 | 0.00 | 73 | 1011.8 |
| 20260506133051 | 18 | 181 | 3.2 | 9.7 | 0.00 | 0.00 | 0.00 | 74 | 1011.9 |
| 20260506132551 | 17 | 148 | 3.2 | 8.0 | 0.00 | 0.00 | 0.00 | 75 | 1012.0 |
| 20260506132051 | 17 | 198 | 3.2 | 9.7 | 0.00 | 0.00 | 0.00 | 75 | 1012.0 |
| 20260506131551 | 17 | 169 | 1.6 | 16.1 | 0.00 | 0.00 | 0.00 | 76 | 1011.9 |
| 20260506131050 | 17 | 133 | 1.6 | 16.1 | 0.00 | 0.00 | 0.00 | 76 | 1012.0 |
| 20260506130551 | 17 | 124 | 3.2 | 12.9 | 0.00 | 0.00 | 0.00 | 76 | 1012.0 |
| 20260506130051 | 17 | 102 | 6.4 | 12.9 | 0.00 | 0.00 | 0.00 | 77 | 1012.3 |
| 20260506125612 | 17 | 309 | 1.6 | 6.4 | 0.00 | 0.00 | 0.00 | 78 | 1012.3 |
| 20260506125051 | 17 | 66 | 4.8 | 9.7 | 0.00 | 0.00 | 0.00 | 78 | 1012.6 |
| 20260506124612 | 17 | 128 | 6.4 | 9.7 | 0.00 | 0.00 | 0.00 | 78 | 1012.6 |
| 20260506124051 | 16 | 161 | 3.2 | 4.8 | 0.00 | 0.00 | 0.00 | 79 | 1012.7 |
| 20260506123551 | 16 | 150 | 0.0 | 8.0 | 0.00 | 0.00 | 0.00 | 78 | 1012.6 |
| 20260506123051 | 16 | 0 | 0.0 | 8.0 | 0.00 | 0.00 | 0.00 | 79 | 1012.6 |
| 20260506122551 | 16 | 138 | 3.2 | 8.0 | 0.00 | 0.00 | 0.00 | 79 | 1012.6 |
| 20260506122112 | 16 | 250 | 1.6 | 6.4 | 0.00 | 0.00 | 0.00 | 79 | 1012.6 |
| 20260506121551 | 16 | 203 | 4.8 | 8.0 | 0.00 | 0.00 | 0.00 | 79 | 1012.3 |
| 20260506121051 | 16 | 153 | 1.6 | 12.9 | 0.00 | 0.00 | 0.00 | 79 | 1012.4 |
| 20260506120551 | 16 | 197 | 3.2 | 12.9 | 0.00 | 0.00 | 0.00 | 79 | 1012.4 |
| 20260506120112 | 16 | 202 | 1.6 | 9.7 | 0.00 | 0.00 | 0.00 | 80 | 1012.4 |
| 20260506115551 | 16 | 99 | 1.6 | 11.3 | 0.00 | 0.00 | 0.00 | 80 | 1012.4 |
| 20260506115051 | 16 | 100 | 3.2 | 11.3 | 0.00 | 0.00 | 0.00 | 80 | 1012.3 |
| 20260506114551 | 16 | 0 | 0.0 | 12.9 | 0.00 | 0.00 | 0.00 | 80 | 1012.4 |
| 20260506114051 | 16 | 120 | 6.4 | 12.9 | 0.00 | 0.00 | 0.00 | 80 | 1012.2 |
| 20260506113551 | 16 | 223 | 1.6 | 12.9 | 0.00 | 0.00 | 0.00 | 81 | 1012.1 |
| 20260506113112 | 16 | 228 | 4.8 | 9.7 | 0.00 | 0.00 | 0.00 | 81 | 1012.0 |
| 20260506112551 | 16 | 162 | 3.2 | 9.7 | 0.00 | 0.00 | 0.00 | 81 | 1012.3 |
| 20260506112051 | 15 | 248 | 3.2 | 9.7 | 0.00 | 0.00 | 0.00 | 81 | 1012.5 |
| 20260506111551 | 15 | 281 | 0.0 | 11.3 | 0.00 | 0.00 | 0.00 | 81 | 1012.5 |
| 20260506111051 | 15 | 295 | 0.0 | 12.9 | 0.00 | 0.00 | 0.00 | 82 | 1012.6 |
| 20260506110551 | 15 | 195 | 1.6 | 12.9 | 0.00 | 0.00 | 0.00 | 82 | 1012.6 |
| 20260506110051 | 15 | 182 | 1.6 | 11.3 | 0.00 | 0.00 | 0.00 | 83 | 1012.6 |
| 20260506105551 | 15 | 205 | 0.0 | 11.3 | 0.00 | 0.00 | 0.00 | 82 | 1012.5 |
| 20260506105051 | 15 | 96 | 1.6 | 14.5 | 0.00 | 0.00 | 0.00 | 82 | 1012.5 |
| 20260506104551 | 15 | 0 | 0.0 | 14.5 | 0.00 | 0.00 | 0.00 | 82 | 1012.7 |
| 20260506104051 | 15 | 155 | 3.2 | 8.0 | 0.00 | 0.00 | 0.00 | 82 | 1012.4 |
| 20260506103551 | 15 | 285 | 1.6 | 8.0 | 0.00 | 0.00 | 0.00 | 82 | 1012.3 |
| 20260506103051 | 15 | 190 | 1.6 | 8.0 | 0.00 | 0.00 | 0.00 | 82 | 1012.3 |
| 20260506102551 | 15 | 182 | 0.0 | 11.3 | 0.00 | 0.00 | 0.00 | 82 | 1012.4 |
| 20260506102112 | 15 | 216 | 3.2 | 14.5 | 0.00 | 0.00 | 0.00 | 83 | 1012.2 |
| 20260506101551 | 15 | 210 | 1.6 | 14.5 | 0.00 | 0.00 | 0.00 | 83 | 1012.2 |
| 20260506101051 | 15 | 11 | 4.8 | 8.0 | 0.00 | 0.00 | 0.00 | 83 | 1012.2 |
| 20260506100551 | 15 | 142 | 1.6 | 14.5 | 0.00 | 0.00 | 0.00 | 83 | 1012.2 |
| 20260506100051 | 15 | 184 | 0.0 | 14.5 | 0.00 | 0.00 | 0.00 | 83 | 1012.1 |
| 20260506095551 | 15 | 49 | 4.8 | 6.4 | 0.00 | 0.00 | 0.00 | 83 | 1012.2 |
| 20260506095112 | 15 | 213 | 1.6 | 8.0 | 0.00 | 0.00 | 0.00 | 83 | 1012.2 |
| 20260506094551 | 15 | 0 | 0.0 | 8.0 | 0.00 | 0.00 | 0.00 | 83 | 1012.1 |
| 20260506094051 | 15 | 84 | 3.2 | 6.4 | 0.00 | 0.00 | 0.00 | 83 | 1012.1 |
| 20260506093612 | 15 | 131 | 0.0 | 6.4 | 0.00 | 0.00 | 0.00 | 83 | 1012.2 |
| 20260506093051 | 15 | 0 | 0.0 | 9.7 | 0.00 | 0.00 | 0.00 | 83 | 1012.3 |
| 20260506092551 | 15 | 183 | 3.2 | 9.7 | 0.00 | 0.00 | 0.00 | 82 | 1012.3 |
| 20260506092051 | 15 | 106 | 1.6 | 11.3 | 0.00 | 0.00 | 0.00 | 82 | 1012.2 |
| 20260506091551 | 15 | 238 | 3.2 | 11.3 | 0.00 | 0.00 | 0.00 | 82 | 1012.2 |
| 20260506091051 | 15 | 208 | 3.2 | 9.7 | 0.00 | 0.00 | 0.00 | 82 | 1012.2 |
| 20260506090551 | 15 | 201 | 1.6 | 8.0 | 0.00 | 0.00 | 0.00 | 82 | 1012.3 |
| 20260506090051 | 15 | 201 | 1.6 | 11.3 | 0.00 | 0.00 | 0.00 | 82 | 1012.1 |
| 20260506085551 | 15 | 195 | 1.6 | 11.3 | 0.00 | 0.00 | 0.00 | 82 | 1012.2 |
| 20260506085051 | 15 | 184 | 3.2 | 11.3 | 0.00 | 0.00 | 0.00 | 82 | 1012.3 |
| 20260506084551 | 15 | 140 | 4.8 | 9.7 | 0.00 | 0.00 | 0.00 | 81 | 1012.3 |
| 20260506084051 | 15 | 0 | 0.0 | 12.9 | 0.00 | 0.00 | 0.00 | 81 | 1012.4 |
| 20260506083551 | 15 | 52 | 9.7 | 12.9 | 0.00 | 0.00 | 0.00 | 81 | 1012.3 |
| 20260506083051 | 15 | 199 | 1.6 | 11.3 | 0.00 | 0.00 | 0.00 | 81 | 1012.3 |
| 20260506082551 | 15 | 264 | 3.2 | 8.0 | 0.00 | 0.00 | 0.00 | 81 | 1012.3 |
| 20260506082112 | 15 | 224 | 4.8 | 8.0 | 0.00 | 0.00 | 0.00 | 80 | 1012.2 |
| 20260506081551 | 15 | 220 | 3.2 | 6.4 | 0.00 | 0.00 | 0.00 | 80 | 1012.1 |
| 20260506081051 | 15 | 194 | 1.6 | 6.4 | 0.00 | 0.00 | 0.00 | 80 | 1012.3 |
| 20260506080551 | 15 | 179 | 4.8 | 6.4 | 0.00 | 0.00 | 0.00 | 80 | 1012.3 |
| 20260506080112 | 15 | 169 | 3.2 | 9.7 | 0.00 | 0.00 | 0.00 | 79 | 1012.3 |
| 20260506073051 | 15 | 148 | 3.2 | 8.0 | 0.00 | 0.00 | 0.00 | 79 | 1012.3 |
| 20260506072551 | 15 | 245 | 1.6 | 9.7 | 0.00 | 0.00 | 0.00 | 78 | 1012.4 |
| 20260506072051 | 15 | 325 | 1.6 | 11.3 | 0.00 | 0.00 | 0.00 | 78 | 1012.4 |
| 20260506071551 | 15 | 232 | 1.6 | 12.9 | 0.00 | 0.00 | 0.00 | 78 | 1012.3 |
| 20260506071051 | 15 | 218 | 1.6 | 12.9 | 0.00 | 0.00 | 0.00 | 78 | 1012.3 |
| 20260506070551 | 15 | 255 | 1.6 | 12.9 | 0.00 | 0.00 | 0.00 | 78 | 1012.4 |
| 20260506062051 | 15 | 172 | 3.2 | 9.7 | 0.00 | 0.00 | 0.00 | 78 | 1012.3 |
| 20260506061552 | 15 | 186 | 3.2 | 11.3 | 0.00 | 0.00 | 0.00 | 77 | 1012.4 |
| 20260506061051 | 15 | 230 | 1.6 | 11.3 | 0.00 | 0.00 | 0.00 | 77 | 1012.3 |
| 20260506060551 | 15 | 177 | 1.6 | 11.3 | 0.00 | 0.00 | 0.00 | 77 | 1012.4 |
| 20260506051051 | 16 | 170 | 1.6 | 8.0 | 0.00 | 0.00 | 0.00 | 75 | 1012.7 |
| 20260506050551 | 16 | 247 | 1.6 | 8.0 | 0.00 | 0.00 | 0.00 | 75 | 1012.9 |
| 20260506045051 | 16 | 160 | 3.2 | 9.7 | 0.00 | 0.00 | 0.00 | 74 | 1012.9 |
| 20260506044552 | 16 | 226 | 0.0 | 9.7 | 0.00 | 0.00 | 0.00 | 73 | 1013.0 |
| 20260506044051 | 16 | 148 | 1.6 | 8.0 | 0.00 | 0.00 | 0.00 | 73 | 1012.9 |
| 20260506043551 | 17 | 334 | 4.8 | 12.9 | 0.00 | 0.00 | 0.00 | 72 | 1013.0 |
| 20260506043113 | 17 | 145 | 4.8 | 12.9 | 0.00 | 0.00 | 0.00 | 72 | 1013.1 |
| 20260506042612 | 17 | 106 | 4.8 | 9.7 | 0.00 | 0.00 | 0.00 | 72 | 1013.0 |
| 20260506042113 | 17 | 218 | 3.2 | 9.7 | 0.00 | 0.00 | 0.00 | 72 | 1013.0 |
| 20260506041612 | 17 | 0 | 0.0 | 11.3 | 0.00 | 0.00 | 0.00 | 71 | 1013.0 |
| 20260506041052 | 17 | 128 | 1.6 | 11.3 | 0.00 | 0.00 | 0.00 | 71 | 1013.1 |
| 20260506040551 | 17 | 109 | 9.7 | 11.3 | 0.00 | 0.00 | 0.00 | 71 | 1013.0 |
| 20260506040051 | 17 | 242 | 4.8 | 17.7 | 0.00 | 0.00 | 0.00 | 70 | 1013.1 |
| 20260506035610 | 17 | 115 | 3.2 | 17.7 | 0.00 | 0.00 | 0.00 | 70 | 1013.1 |
| 20260506035050 | 17 | 162 | 1.6 | 17.7 | 0.00 | 0.00 | 0.00 | 69 | 1013.1 |
| 20260506034550 | 17 | 205 | 3.2 | 8.0 | 0.00 | 0.00 | 0.00 | 68 | 1013.1 |
| 20260506034049 | 17 | 80 | 3.2 | 8.0 | 0.00 | 0.00 | 0.00 | 68 | 1013.1 |
| 20260506033550 | 17 | 330 | 6.4 | 12.9 | 0.00 | 0.00 | 0.00 | 68 | 1013.1 |
| 20260506033050 | 17 | 208 | 1.6 | 12.9 | 0.00 | 0.00 | 0.00 | 68 | 1013.2 |
| 20260506032550 | 17 | 119 | 3.2 | 12.9 | 0.00 | 0.00 | 0.00 | 67 | 1013.2 |
| 20260506032050 | 17 | 198 | 6.4 | 12.9 | 0.00 | 0.00 | 0.00 | 67 | 1013.2 |
| 20260506031549 | 17 | 35 | 1.6 | 11.3 | 0.00 | 0.00 | 0.00 | 67 | 1013.0 |
| 20260506031049 | 17 | 252 | 6.4 | 11.3 | 0.00 | 0.00 | 0.00 | 67 | 1013.1 |
| 20260506030612 | 17 | 195 | 4.8 | 8.0 | 0.00 | 0.00 | 0.00 | 67 | 1013.0 |
| 20260506030049 | 17 | 0 | 0.0 | 9.7 | 0.00 | 0.00 | 0.00 | 67 | 1013.1 |
| 20260506025549 | 17 | 160 | 3.2 | 9.7 | 0.00 | 0.00 | 0.00 | 67 | 1013.0 |
| 20260506025049 | 17 | 245 | 4.8 | 12.9 | 0.00 | 0.00 | 0.00 | 66 | 1012.9 |
| 20260506024550 | 17 | 89 | 6.4 | 12.9 | 0.00 | 0.00 | 0.00 | 66 | 1012.9 |
| 20260506024049 | 17 | 0 | 0.0 | 12.9 | 0.00 | 0.00 | 0.00 | 66 | 1012.9 |
| 20260506023550 | 17 | 183 | 4.8 | 14.5 | 0.00 | 0.00 | 0.00 | 66 | 1012.7 |
| 20260506023050 | 17 | 200 | 3.2 | 14.5 | 0.00 | 0.00 | 0.00 | 66 | 1012.7 |
| 20260506022549 | 17 | 250 | 6.4 | 16.1 | 0.00 | 0.00 | 0.00 | 66 | 1012.8 |
| 20260506022049 | 17 | 326 | 1.6 | 16.1 | 0.00 | 0.00 | 0.00 | 66 | 1012.8 |
| 20260506021610 | 17 | 183 | 3.2 | 9.7 | 0.00 | 0.00 | 0.00 | 66 | 1012.9 |
| 20260506021049 | 17 | 160 | 3.2 | 9.7 | 0.00 | 0.00 | 0.00 | 66 | 1012.9 |
| 20260506020549 | 17 | 212 | 0.0 | 9.7 | 0.00 | 0.00 | 0.00 | 67 | 1012.9 |
| 20260506020049 | 17 | 233 | 1.6 | 9.7 | 0.00 | 0.00 | 0.00 | 66 | 1013.0 |
| 20260506015549 | 17 | 0 | 0.0 | 17.7 | 0.00 | 0.00 | 0.00 | 66 | 1013.0 |
| 20260506015050 | 17 | 141 | 1.6 | 17.7 | 0.00 | 0.00 | 0.00 | 66 | 1013.0 |
| 20260506014610 | 17 | 221 | 1.6 | 11.3 | 0.00 | 0.00 | 0.00 | 65 | 1012.9 |
| 20260506014049 | 17 | 98 | 4.8 | 11.3 | 0.00 | 0.00 | 0.00 | 65 | 1012.9 |
| 20260506013550 | 17 | 0 | 0.0 | 12.9 | 0.00 | 0.00 | 0.00 | 65 | 1012.7 |
| 20260506013049 | 17 | 333 | 1.6 | 12.9 | 0.00 | 0.00 | 0.00 | 64 | 1012.7 |
| 20260506012550 | 17 | 158 | 3.2 | 8.0 | 0.00 | 0.00 | 0.00 | 64 | 1012.5 |
| 20260506012049 | 17 | 351 | 3.2 | 8.0 | 0.00 | 0.00 | 0.00 | 64 | 1012.6 |
| 20260506011550 | 17 | 172 | 1.6 | 6.4 | 0.00 | 0.00 | 0.00 | 64 | 1012.4 |
| 20260506011049 | 17 | 25 | 6.4 | 14.5 | 0.00 | 0.00 | 0.00 | 63 | 1012.4 |
| 20260506010610 | 17 | 158 | 0.0 | 14.5 | 0.00 | 0.00 | 0.00 | 63 | 1012.4 |
| 20260506010111 | 17 | 260 | 9.7 | 9.7 | 0.00 | 0.00 | 0.00 | 63 | 1012.3 |
| 20260506005549 | 17 | 153 | 3.2 | 8.0 | 0.00 | 0.00 | 0.00 | 62 | 1012.3 |
| 20260506005111 | 17 | 184 | 1.6 | 6.4 | 0.00 | 0.00 | 0.00 | 62 | 1012.3 |
| 20260506004550 | 17 | 0 | 0.0 | 9.7 | 0.00 | 0.00 | 0.00 | 62 | 1012.3 |
| 20260506004110 | 17 | 173 | 0.0 | 9.7 | 0.00 | 0.00 | 0.00 | 61 | 1012.1 |
| 20260506003550 | 17 | 31 | 4.8 | 8.0 | 0.00 | 0.00 | 0.00 | 61 | 1012.0 |
| 20260506003050 | 18 | 167 | 1.6 | 8.0 | 0.00 | 0.00 | 0.00 | 61 | 1012.0 |
| 20260506002550 | 18 | 202 | 1.6 | 14.5 | 0.00 | 0.00 | 0.00 | 60 | 1012.0 |
| 20260506002050 | 18 | 143 | 3.2 | 14.5 | 0.00 | 0.00 | 0.00 | 61 | 1011.8 |
| 20260506001549 | 18 | 251 | 3.2 | 9.7 | 0.00 | 0.00 | 0.00 | 60 | 1011.7 |
| 20260506001049 | 18 | 129 | 1.6 | 11.3 | 0.00 | 0.00 | 0.00 | 60 | 1011.7 |
| 20260506000610 | 18 | 115 | 3.2 | 11.3 | 0.00 | 0.00 | 0.00 | 60 | 1011.7 |
| 20260506000050 | 18 | 184 | 4.8 | 16.1 | 0.00 | 0.00 | 0.00 | 60 | 1011.6 |
| 20260505235550 | 18 | 183 | 3.2 | 16.1 | 0.00 | 0.00 | 0.00 | 60 | 1011.4 |
| 20260505235049 | 18 | 208 | 3.2 | 16.1 | 0.00 | 0.00 | 0.00 | 59 | 1011.4 |
| 20260505234549 | 18 | 210 | 8.0 | 9.7 | 0.00 | 0.00 | 0.00 | 59 | 1011.3 |
| 20260505234049 | 19 | 84 | 3.2 | 9.7 | 0.00 | 0.00 | 0.00 | 59 | 1011.1 |
| 20260505233549 | 19 | 269 | 3.2 | 11.3 | 0.00 | 0.00 | 0.00 | 59 | 1011.0 |
| 20260505233050 | 19 | 223 | 3.2 | 11.3 | 0.00 | 0.00 | 0.00 | 58 | 1010.9 |
| 20260505232549 | 19 | 243 | 4.8 | 16.1 | 0.00 | 0.00 | 0.00 | 58 | 1010.7 |
| 20260505232050 | 20 | 169 | 1.6 | 16.1 | 0.00 | 0.00 | 0.00 | 57 | 1010.9 |
| 20260505231550 | 20 | 213 | 11.3 | 14.5 | 0.00 | 0.00 | 0.00 | 56 | 1010.7 |
| 20260505231050 | 20 | 163 | 4.8 | 14.5 | 0.00 | 0.00 | 0.00 | 56 | 1010.8 |
| 20260505230611 | 20 | 55 | 3.2 | 14.5 | 0.00 | 0.00 | 0.00 | 56 | 1010.9 |
| 20260505230050 | 20 | 27 | 3.2 | 14.5 | 0.00 | 0.00 | 0.00 | 55 | 1010.8 |
| 20260505225549 | 20 | 124 | 8.0 | 12.9 | 0.00 | 0.00 | 0.00 | 55 | 1010.5 |
| 20260505225050 | 21 | 192 | 0.0 | 16.1 | 0.00 | 0.00 | 0.00 | 55 | 1010.6 |
| 20260505224550 | 21 | 27 | 4.8 | 16.1 | 0.00 | 0.00 | 0.00 | 54 | 1010.6 |
| 20260505224050 | 21 | 144 | 4.8 | 16.1 | 0.00 | 0.00 | 0.00 | 54 | 1010.5 |
| 20260505223550 | 21 | 195 | 0.0 | 8.0 | 0.00 | 0.00 | 0.00 | 54 | 1010.3 |
| 20260505223049 | 21 | 134 | 4.8 | 14.5 | 0.00 | 0.00 | 0.00 | 53 | 1010.3 |
| 20260505222550 | 21 | 210 | 3.2 | 14.5 | 0.00 | 0.00 | 0.00 | 53 | 1010.1 |
| 20260505222050 | 22 | 118 | 1.6 | 11.3 | 0.00 | 0.00 | 0.00 | 52 | 1010.0 |
| 20260505221550 | 22 | 188 | 9.7 | 12.9 | 0.00 | 0.00 | 0.00 | 52 | 1010.3 |
| 20260505221050 | 22 | 210 | 1.6 | 16.1 | 0.00 | 0.00 | 0.00 | 51 | 1010.3 |
| 20260505220549 | 22 | 354 | 3.2 | 16.1 | 0.00 | 0.00 | 0.00 | 51 | 1010.3 |
| 20260505220050 | 22 | 143 | 0.0 | 16.1 | 0.00 | 0.00 | 0.00 | 50 | 1010.5 |
| 20260505215550 | 22 | 227 | 1.6 | 11.3 | 0.00 | 0.00 | 0.00 | 51 | 1010.5 |
| 20260505215050 | 22 | 229 | 1.6 | 17.7 | 0.00 | 0.00 | 0.00 | 53 | 1010.5 |
| 20260505214550 | 22 | 0 | 0.0 | 17.7 | 0.00 | 0.00 | 0.00 | 51 | 1010.4 |
| 20260505214050 | 22 | 168 | 1.6 | 16.1 | 0.00 | 0.00 | 0.00 | 51 | 1010.4 |
| 20260505213550 | 22 | 70 | 9.7 | 16.1 | 0.00 | 0.00 | 0.00 | 50 | 1010.4 |
| 20260505213049 | 23 | 252 | 9.7 | 12.9 | 0.00 | 0.00 | 0.00 | 49 | 1010.3 |
| 20260505212550 | 23 | 216 | 3.2 | 12.9 | 0.00 | 0.00 | 0.00 | 49 | 1010.3 |
| 20260505212049 | 23 | 174 | 3.2 | 9.7 | 0.00 | 0.00 | 0.00 | 49 | 1010.4 |
| 20260505211611 | 23 | 110 | 3.2 | 17.7 | 0.00 | 0.00 | 0.00 | 48 | 1010.4 |
| 20260505211050 | 23 | 186 | 1.6 | 17.7 | 0.00 | 0.00 | 0.00 | 48 | 1010.4 |
| 20260505210611 | 23 | 37 | 6.4 | 16.1 | 0.00 | 0.00 | 0.00 | 47 | 1010.4 |
| 20260505210050 | 24 | 306 | 6.4 | 9.7 | 0.00 | 0.00 | 0.00 | 48 | 1010.3 |
| 20260505205549 | 24 | 127 | 3.2 | 9.7 | 0.00 | 0.00 | 0.00 | 48 | 1010.3 |
| 20260505205050 | 24 | 206 | 6.4 | 9.7 | 0.00 | 0.00 | 0.00 | 47 | 1010.2 |
| 20260505204549 | 24 | 124 | 4.8 | 12.9 | 0.00 | 0.00 | 0.00 | 50 | 1010.2 |
| 20260505204050 | 25 | 279 | 3.2 | 19.3 | 0.00 | 0.00 | 0.00 | 46 | 1010.2 |
| 20260505203550 | 25 | 0 | 0.0 | 19.3 | 0.00 | 0.00 | 0.00 | 46 | 1010.2 |
| 20260505203050 | 25 | 221 | 3.2 | 12.9 | 0.00 | 0.00 | 0.00 | 46 | 1010.2 |
| 20260505202611 | 25 | 261 | 3.2 | 12.9 | 0.00 | 0.00 | 0.00 | 45 | 1010.0 |
| 20260505202050 | 25 | 146 | 3.2 | 12.9 | 0.00 | 0.00 | 0.00 | 45 | 1010.0 |
| 20260505201550 | 25 | 120 | 3.2 | 12.9 | 0.00 | 0.00 | 0.00 | 45 | 1010.2 |
| 20260505201050 | 25 | 221 | 1.6 | 16.1 | 0.00 | 0.00 | 0.00 | 44 | 1010.2 |
| 20260505200550 | 25 | 123 | 4.8 | 16.1 | 0.00 | 0.00 | 0.00 | 44 | 1010.2 |
| 20260505200049 | 25 | 120 | 9.7 | 12.9 | 0.00 | 0.00 | 0.00 | 45 | 1010.4 |
| 20260505195550 | 25 | 11 | 1.6 | 12.9 | 0.00 | 0.00 | 0.00 | 45 | 1010.1 |
| 20260505195050 | 25 | 150 | 1.6 | 12.9 | 0.00 | 0.00 | 0.00 | 44 | 1010.1 |
| 20260505194550 | 26 | 223 | 3.2 | 11.3 | 0.00 | 0.00 | 0.00 | 43 | 1010.4 |
| 20260505194050 | 26 | 250 | 4.8 | 9.7 | 0.00 | 0.00 | 0.00 | 45 | 1010.3 |
| 20260505193550 | 26 | 146 | 1.6 | 11.3 | 0.00 | 0.00 | 0.00 | 43 | 1010.3 |